createdAt,value
2018-11-29T00:00:04.390Z,8.80
2018-11-29T00:01:07.766Z,8.80
2018-11-29T00:02:11.155Z,8.80
2018-11-29T00:03:14.605Z,8.80
2018-11-29T00:04:17.983Z,8.80
2018-11-29T00:05:21.387Z,8.80
2018-11-29T00:06:24.932Z,8.80
2018-11-29T00:07:28.298Z,8.80
2018-11-29T00:08:31.675Z,8.80
2018-11-29T00:09:39.575Z,8.80
2018-11-29T00:10:42.952Z,8.80
2018-11-29T00:11:46.330Z,8.80
2018-11-29T00:12:49.734Z,8.80
2018-11-29T00:13:53.110Z,8.80
2018-11-29T00:14:56.509Z,8.80
2018-11-29T00:16:00.009Z,8.80
2018-11-29T00:17:03.387Z,8.80
2018-11-29T00:18:06.779Z,8.80
2018-11-29T00:19:10.187Z,8.90
2018-11-29T00:20:14.298Z,8.90
2018-11-29T00:21:17.691Z,8.80
2018-11-29T00:22:21.203Z,8.80
2018-11-29T00:23:24.585Z,8.90
2018-11-29T00:24:27.994Z,8.90
2018-11-29T00:25:31.378Z,8.90
2018-11-29T00:26:34.778Z,8.90
2018-11-29T00:27:38.185Z,8.90
2018-11-29T00:28:41.642Z,8.90
2018-11-29T00:29:45.022Z,8.90
2018-11-29T00:30:48.417Z,8.90
2018-11-29T00:31:51.809Z,8.90
2018-11-29T00:32:55.874Z,8.90
2018-11-29T00:33:59.335Z,8.90
2018-11-29T00:35:02.731Z,8.90
2018-11-29T00:36:06.165Z,8.90
2018-11-29T00:37:09.581Z,8.90
2018-11-29T00:38:12.975Z,9.00
2018-11-29T00:39:16.360Z,9.00
2018-11-29T00:40:20.798Z,9.00
2018-11-29T00:41:24.203Z,9.00
2018-11-29T00:42:27.602Z,9.00
2018-11-29T00:43:31.013Z,9.00
2018-11-29T00:44:34.408Z,9.00
2018-11-29T00:45:37.979Z,9.00
2018-11-29T00:46:41.375Z,9.00
2018-11-29T00:47:45.633Z,9.00
2018-11-29T00:48:49.010Z,9.00
2018-11-29T00:49:52.396Z,9.00
2018-11-29T00:50:55.764Z,9.00
2018-11-29T00:51:59.140Z,9.00
2018-11-29T00:53:02.518Z,9.00
2018-11-29T00:54:05.889Z,9.00
2018-11-29T00:55:10.448Z,9.00
2018-11-29T00:56:13.856Z,9.00
2018-11-29T00:57:17.243Z,9.00
2018-11-29T00:58:20.647Z,9.00
2018-11-29T00:59:24.030Z,9.00
2018-11-29T01:00:27.433Z,9.00
2018-11-29T01:01:30.811Z,9.00
2018-11-29T01:02:34.276Z,9.00
2018-11-29T01:03:37.665Z,9.00
2018-11-29T01:04:41.045Z,9.00
2018-11-29T01:05:44.414Z,9.00
2018-11-29T01:06:47.800Z,8.90
2018-11-29T01:07:51.225Z,9.00
2018-11-29T01:08:54.943Z,9.00
2018-11-29T01:09:58.322Z,9.00
2018-11-29T01:11:01.698Z,8.90
2018-11-29T01:12:05.567Z,9.00
2018-11-29T01:13:08.950Z,9.00
2018-11-29T01:14:12.327Z,9.00
2018-11-29T01:15:19.670Z,9.00
2018-11-29T01:16:23.079Z,8.90
2018-11-29T01:17:26.454Z,8.90
2018-11-29T01:18:29.834Z,8.90
2018-11-29T01:19:33.292Z,8.90
2018-11-29T01:20:36.677Z,8.90
2018-11-29T01:21:40.055Z,8.90
2018-11-29T01:22:43.452Z,8.90
2018-11-29T01:23:46.841Z,8.90
2018-11-29T01:24:50.201Z,8.90
2018-11-29T01:25:53.575Z,8.90
2018-11-29T01:26:56.943Z,8.90
2018-11-29T01:28:00.338Z,8.90
2018-11-29T01:29:03.722Z,8.90
2018-11-29T01:30:11.618Z,8.90
2018-11-29T01:31:14.999Z,8.90
2018-11-29T01:32:18.385Z,8.90
2018-11-29T01:33:21.824Z,8.90
2018-11-29T01:34:25.245Z,8.90
2018-11-29T01:35:28.610Z,8.80
2018-11-29T01:36:32.067Z,8.80
2018-11-29T01:37:35.439Z,8.90
2018-11-29T01:38:38.836Z,8.90
2018-11-29T01:39:42.228Z,8.80
2018-11-29T01:40:45.599Z,8.80
2018-11-29T01:41:48.995Z,8.90
2018-11-29T01:42:57.400Z,8.80
2018-11-29T01:44:00.806Z,8.80
2018-11-29T01:45:04.203Z,8.90
2018-11-29T01:46:07.747Z,8.80
2018-11-29T01:47:11.109Z,8.80
2018-11-29T01:48:14.470Z,8.80
2018-11-29T01:49:17.868Z,8.80
2018-11-29T01:50:21.255Z,8.80
2018-11-29T01:51:24.650Z,8.90
2018-11-29T01:52:28.043Z,8.80
2018-11-29T01:53:31.436Z,8.90
2018-11-29T01:54:34.862Z,8.90
2018-11-29T01:55:38.262Z,8.90
2018-11-29T01:56:41.640Z,8.90
2018-11-29T01:57:45.242Z,8.90
2018-11-29T01:58:48.610Z,8.90
2018-11-29T01:59:52.037Z,8.90
2018-11-29T02:00:55.402Z,8.90
2018-11-29T02:01:58.780Z,8.90
2018-11-29T02:03:02.154Z,8.90
2018-11-29T02:04:05.702Z,8.90
2018-11-29T02:05:10.326Z,8.90
2018-11-29T02:06:13.706Z,8.90
2018-11-29T02:07:17.082Z,8.80
2018-11-29T02:08:20.473Z,8.90
2018-11-29T02:09:23.855Z,8.80
2018-11-29T02:10:27.850Z,8.90
2018-11-29T02:11:31.218Z,8.80
2018-11-29T02:12:34.582Z,8.80
2018-11-29T02:13:38.007Z,8.80
2018-11-29T02:14:41.370Z,8.90
2018-11-29T02:15:44.782Z,8.90
2018-11-29T02:16:48.167Z,8.90
2018-11-29T02:17:51.534Z,8.80
2018-11-29T02:18:54.978Z,8.80
2018-11-29T02:19:58.348Z,8.80
2018-11-29T02:21:01.739Z,8.80
2018-11-29T02:22:05.467Z,8.80
2018-11-29T02:23:08.841Z,8.80
2018-11-29T02:24:12.238Z,8.80
2018-11-29T02:25:15.673Z,8.80
2018-11-29T02:26:19.420Z,8.80
2018-11-29T02:27:22.801Z,8.80
2018-11-29T02:28:26.172Z,8.90
2018-11-29T02:29:29.582Z,8.80
2018-11-29T02:30:33.066Z,8.80
2018-11-29T02:31:36.467Z,8.90
2018-11-29T02:32:39.842Z,8.80
2018-11-29T02:33:43.206Z,8.90
2018-11-29T02:34:46.583Z,8.90
2018-11-29T02:35:49.962Z,8.90
2018-11-29T02:36:53.334Z,8.90
2018-11-29T02:37:56.706Z,8.90
2018-11-29T02:39:00.099Z,8.90
2018-11-29T02:40:03.619Z,8.90
2018-11-29T02:41:07.098Z,8.90
2018-11-29T02:42:10.495Z,8.90
2018-11-29T02:43:13.903Z,8.90
2018-11-29T02:44:17.274Z,8.90
2018-11-29T02:45:23.658Z,8.90
2018-11-29T02:46:27.023Z,8.90
2018-11-29T02:47:30.410Z,8.90
2018-11-29T02:48:33.796Z,8.90
2018-11-29T02:49:37.171Z,8.90
2018-11-29T02:50:40.549Z,8.90
2018-11-29T02:51:43.920Z,8.80
2018-11-29T02:52:47.386Z,8.90
2018-11-29T02:53:50.779Z,8.90
2018-11-29T02:54:54.152Z,8.90
2018-11-29T02:55:57.534Z,8.90
2018-11-29T02:57:00.905Z,8.90
2018-11-29T02:58:04.515Z,8.90
2018-11-29T02:59:07.884Z,8.90
2018-11-29T03:00:13.196Z,8.90
2018-11-29T03:01:16.599Z,8.90
2018-11-29T03:02:19.966Z,8.90
2018-11-29T03:03:23.364Z,8.90
2018-11-29T03:04:26.759Z,8.90
2018-11-29T03:05:30.143Z,8.90
2018-11-29T03:06:33.559Z,8.90
2018-11-29T03:07:37.432Z,8.90
2018-11-29T03:08:40.859Z,8.90
2018-11-29T03:09:44.231Z,8.90
2018-11-29T03:10:47.590Z,8.90
2018-11-29T03:11:50.949Z,8.90
2018-11-29T03:12:54.568Z,9.00
2018-11-29T03:13:57.975Z,8.90
2018-11-29T03:15:01.367Z,8.90
2018-11-29T03:16:04.759Z,8.90
2018-11-29T03:17:08.147Z,8.90
2018-11-29T03:18:11.525Z,8.90
2018-11-29T03:19:15.030Z,8.90
2018-11-29T03:20:18.394Z,8.90
2018-11-29T03:21:21.781Z,8.90
2018-11-29T03:22:25.172Z,8.90
2018-11-29T03:23:28.563Z,9.00
2018-11-29T03:24:31.947Z,9.00
2018-11-29T03:25:35.386Z,8.90
2018-11-29T03:26:38.768Z,9.00
2018-11-29T03:27:42.208Z,8.90
2018-11-29T03:28:45.635Z,9.00
2018-11-29T03:29:49.060Z,9.00
2018-11-29T03:30:52.459Z,9.00
2018-11-29T03:31:55.910Z,9.00
2018-11-29T03:32:59.291Z,9.00
2018-11-29T03:34:02.691Z,9.00
2018-11-29T03:35:06.116Z,9.00
2018-11-29T03:36:09.814Z,9.00
2018-11-29T03:37:13.181Z,9.00
2018-11-29T03:38:16.562Z,9.00
2018-11-29T03:39:19.939Z,9.00
2018-11-29T03:40:23.348Z,9.00
2018-11-29T03:41:26.714Z,9.00
2018-11-29T03:42:30.079Z,9.00
2018-11-29T03:43:33.455Z,9.00
2018-11-29T03:44:36.854Z,9.00
2018-11-29T03:45:40.260Z,9.00
2018-11-29T03:46:43.663Z,9.00
2018-11-29T03:47:47.038Z,9.00
2018-11-29T03:48:50.415Z,9.00
2018-11-29T03:49:54.127Z,9.00
2018-11-29T03:50:57.521Z,9.00
2018-11-29T03:52:00.889Z,8.90
2018-11-29T03:53:04.283Z,9.00
2018-11-29T03:54:07.659Z,9.00
2018-11-29T03:55:11.364Z,9.00
2018-11-29T03:56:14.774Z,8.90
2018-11-29T03:57:18.151Z,8.90
2018-11-29T03:58:21.527Z,8.90
2018-11-29T03:59:24.905Z,8.90
2018-11-29T04:00:28.288Z,8.90
2018-11-29T04:01:31.740Z,8.90
2018-11-29T04:02:35.118Z,9.00
2018-11-29T04:03:38.534Z,9.00
2018-11-29T04:04:41.912Z,9.00
2018-11-29T04:05:45.316Z,9.00
2018-11-29T04:06:48.695Z,9.00
2018-11-29T04:07:52.078Z,9.00
2018-11-29T04:08:55.463Z,9.00
2018-11-29T04:09:58.825Z,9.00
2018-11-29T04:11:02.245Z,9.00
2018-11-29T04:12:05.878Z,9.00
2018-11-29T04:13:09.256Z,9.00
2018-11-29T04:14:12.679Z,9.00
2018-11-29T04:15:16.308Z,9.00
2018-11-29T04:16:19.678Z,9.00
2018-11-29T04:17:23.086Z,9.00
2018-11-29T04:18:26.470Z,9.00
2018-11-29T04:19:29.850Z,9.00
2018-11-29T04:20:33.223Z,9.00
2018-11-29T04:21:36.615Z,9.00
2018-11-29T04:22:40.115Z,9.00
2018-11-29T04:23:43.474Z,9.00
2018-11-29T04:24:46.858Z,9.00
2018-11-29T04:25:50.230Z,9.00
2018-11-29T04:26:53.599Z,9.00
2018-11-29T04:27:57.059Z,9.00
2018-11-29T04:29:00.458Z,9.00
2018-11-29T04:30:03.932Z,9.00
2018-11-29T04:31:07.736Z,9.00
2018-11-29T04:32:11.314Z,9.00
2018-11-29T04:33:15.146Z,9.00
2018-11-29T04:34:18.524Z,9.00
2018-11-29T04:35:21.898Z,9.00
2018-11-29T04:36:25.287Z,9.00
2018-11-29T04:37:28.683Z,9.00
2018-11-29T04:38:32.106Z,9.00
2018-11-29T04:39:35.465Z,9.10
2018-11-29T04:40:39.376Z,9.10
2018-11-29T04:41:42.786Z,9.10
2018-11-29T04:42:46.154Z,9.00
2018-11-29T04:43:49.562Z,9.10
2018-11-29T04:44:52.951Z,9.10
2018-11-29T04:46:07.711Z,9.00
2018-11-29T04:47:11.077Z,9.10
2018-11-29T04:48:14.442Z,9.00
2018-11-29T04:49:17.853Z,9.00
2018-11-29T04:50:21.227Z,9.10
2018-11-29T04:51:24.660Z,9.00
2018-11-29T04:52:28.035Z,9.00
2018-11-29T04:53:31.451Z,9.00
2018-11-29T04:54:34.846Z,9.00
2018-11-29T04:55:38.235Z,9.00
2018-11-29T04:56:41.614Z,9.00
2018-11-29T04:57:45.024Z,9.00
2018-11-29T04:58:48.410Z,9.00
2018-11-29T04:59:51.819Z,9.00
2018-11-29T05:00:55.203Z,9.00
2018-11-29T05:01:58.640Z,9.00
2018-11-29T05:03:02.017Z,9.00
2018-11-29T05:04:05.597Z,9.00
2018-11-29T05:05:09.459Z,9.00
2018-11-29T05:06:12.831Z,9.00
2018-11-29T05:07:16.216Z,9.00
2018-11-29T05:08:19.705Z,9.00
2018-11-29T05:09:23.086Z,9.00
2018-11-29T05:10:26.612Z,9.00
2018-11-29T05:11:30.019Z,9.00
2018-11-29T05:12:33.402Z,9.00
2018-11-29T05:13:36.782Z,9.00
2018-11-29T05:14:40.159Z,9.00
2018-11-29T05:15:43.597Z,9.00
2018-11-29T05:16:47.031Z,9.00
2018-11-29T05:17:50.430Z,9.00
2018-11-29T05:18:53.955Z,9.00
2018-11-29T05:19:57.347Z,9.00
2018-11-29T05:21:00.768Z,9.00
2018-11-29T05:22:04.146Z,9.00
2018-11-29T05:23:07.557Z,9.10
2018-11-29T05:24:10.941Z,9.10
2018-11-29T05:25:14.349Z,9.10
2018-11-29T05:26:17.850Z,9.00
2018-11-29T05:27:21.240Z,9.00
2018-11-29T05:28:24.638Z,9.00
2018-11-29T05:29:28.103Z,9.00
2018-11-29T05:30:31.471Z,9.00
2018-11-29T05:31:34.870Z,9.00
2018-11-29T05:32:38.335Z,9.00
2018-11-29T05:33:41.726Z,9.00
2018-11-29T05:34:45.124Z,9.00
2018-11-29T05:35:48.570Z,9.10
2018-11-29T05:36:52.064Z,9.00
2018-11-29T05:37:55.454Z,9.00
2018-11-29T05:38:58.839Z,9.00
2018-11-29T05:40:02.251Z,9.00
2018-11-29T05:41:06.185Z,9.00
2018-11-29T05:42:09.606Z,9.00
2018-11-29T05:43:12.987Z,9.00
2018-11-29T05:44:16.358Z,9.00
2018-11-29T05:45:19.731Z,9.00
2018-11-29T05:46:23.250Z,9.00
2018-11-29T05:47:26.638Z,9.00
2018-11-29T05:48:30.018Z,9.00
2018-11-29T05:49:33.407Z,9.00
2018-11-29T05:50:36.790Z,9.00
2018-11-29T05:51:40.182Z,9.00
2018-11-29T05:52:43.593Z,9.00
2018-11-29T05:53:46.994Z,9.00
2018-11-29T05:54:50.355Z,8.90
2018-11-29T05:55:53.827Z,8.90
2018-11-29T05:56:57.202Z,9.00
2018-11-29T05:58:00.602Z,9.00
2018-11-29T05:59:03.981Z,8.90
2018-11-29T06:00:10.617Z,8.90
2018-11-29T06:01:18.693Z,8.90
2018-11-29T06:02:22.075Z,8.90
2018-11-29T06:03:25.490Z,8.90
2018-11-29T06:04:28.883Z,8.90
2018-11-29T06:05:32.255Z,8.80
2018-11-29T06:06:35.650Z,8.80
2018-11-29T06:07:39.042Z,8.80
2018-11-29T06:08:42.433Z,8.80
2018-11-29T06:09:45.861Z,8.90
2018-11-29T06:10:49.241Z,8.90
2018-11-29T06:11:52.619Z,8.90
2018-11-29T06:12:56.052Z,8.90
2018-11-29T06:13:59.447Z,8.80
2018-11-29T06:15:02.822Z,8.80
2018-11-29T06:16:06.190Z,8.80
2018-11-29T06:17:09.589Z,8.80
2018-11-29T06:18:12.975Z,8.80
2018-11-29T06:19:16.378Z,8.80
2018-11-29T06:20:20.103Z,8.80
2018-11-29T06:21:23.503Z,8.80
2018-11-29T06:22:26.928Z,8.80
2018-11-29T06:23:30.334Z,8.90
2018-11-29T06:24:33.752Z,8.90
2018-11-29T06:25:37.115Z,8.80
2018-11-29T06:26:40.499Z,8.90
2018-11-29T06:27:43.887Z,8.80
2018-11-29T06:28:47.391Z,8.90
2018-11-29T06:29:50.778Z,8.90
2018-11-29T06:30:54.179Z,8.90
2018-11-29T06:31:57.674Z,8.90
2018-11-29T06:33:01.078Z,8.80
2018-11-29T06:34:04.454Z,8.90
2018-11-29T06:35:07.873Z,8.90
2018-11-29T06:36:11.255Z,8.90
2018-11-29T06:37:14.658Z,8.90
2018-11-29T06:38:18.017Z,8.90
2018-11-29T06:39:21.395Z,8.90
2018-11-29T06:40:24.818Z,8.90
2018-11-29T06:41:28.202Z,8.90
2018-11-29T06:42:31.581Z,8.90
2018-11-29T06:43:35.314Z,8.90
2018-11-29T06:44:38.693Z,8.90
2018-11-29T06:45:42.094Z,8.90
2018-11-29T06:46:45.494Z,8.90
2018-11-29T06:47:50.163Z,8.90
2018-11-29T06:48:53.583Z,8.90
2018-11-29T06:49:56.960Z,8.90
2018-11-29T06:51:00.371Z,8.90
2018-11-29T06:52:03.736Z,8.90
2018-11-29T06:53:12.635Z,9.00
2018-11-29T06:54:16.034Z,9.00
2018-11-29T06:55:23.229Z,9.00
2018-11-29T06:56:27.227Z,9.00
2018-11-29T06:57:30.599Z,9.00
2018-11-29T06:58:33.980Z,9.00
2018-11-29T06:59:37.371Z,9.00
2018-11-29T07:00:40.756Z,9.00
2018-11-29T07:01:44.150Z,9.00
2018-11-29T07:02:47.569Z,9.00
2018-11-29T07:03:50.961Z,9.00
2018-11-29T07:04:54.358Z,9.00
2018-11-29T07:05:57.738Z,9.00
2018-11-29T07:07:01.146Z,9.00
2018-11-29T07:08:04.514Z,9.00
2018-11-29T07:09:09.070Z,9.00
2018-11-29T07:10:12.462Z,9.00
2018-11-29T07:11:16.081Z,9.00
2018-11-29T07:12:19.502Z,9.00
2018-11-29T07:13:22.881Z,9.00
2018-11-29T07:14:26.530Z,9.00
2018-11-29T07:15:30.491Z,9.00
2018-11-29T07:16:34.461Z,9.00
2018-11-29T07:17:38.380Z,9.00
2018-11-29T07:18:41.977Z,9.00
2018-11-29T07:19:45.388Z,9.00
2018-11-29T07:21:00.097Z,9.00
2018-11-29T07:22:03.511Z,9.00
2018-11-29T07:23:06.974Z,9.00
2018-11-29T07:24:10.516Z,9.00
2018-11-29T07:25:13.981Z,8.90
2018-11-29T07:26:17.476Z,8.90
2018-11-29T07:27:20.862Z,9.00
2018-11-29T07:28:24.310Z,8.90
2018-11-29T07:29:27.715Z,8.90
2018-11-29T07:30:31.147Z,8.90
2018-11-29T07:31:34.590Z,8.90
2018-11-29T07:32:38.007Z,8.90
2018-11-29T07:33:41.435Z,8.90
2018-11-29T07:34:44.916Z,8.90
2018-11-29T07:35:48.294Z,8.90
2018-11-29T07:36:51.723Z,8.90
2018-11-29T07:37:55.148Z,8.90
2018-11-29T07:38:58.541Z,8.90
2018-11-29T07:40:02.069Z,8.90
2018-11-29T07:41:05.761Z,8.90
2018-11-29T07:42:09.153Z,8.90
2018-11-29T07:43:12.682Z,8.80
2018-11-29T07:44:16.118Z,8.90
2018-11-29T07:45:20.430Z,8.90
2018-11-29T07:46:24.038Z,8.90
2018-11-29T07:47:27.464Z,8.80
2018-11-29T07:48:31.038Z,8.90
2018-11-29T07:49:34.567Z,8.80
2018-11-29T07:50:37.946Z,8.80
2018-11-29T07:51:41.355Z,8.90
2018-11-29T07:52:44.931Z,8.90
2018-11-29T07:53:48.336Z,8.90
2018-11-29T07:54:51.749Z,8.90
2018-11-29T07:55:55.139Z,8.90
2018-11-29T07:56:58.568Z,8.90
2018-11-29T07:58:01.979Z,8.90
2018-11-29T07:59:05.400Z,9.00
2018-11-29T08:00:11.739Z,8.90
2018-11-29T08:01:15.137Z,8.90
2018-11-29T08:02:18.647Z,9.00
2018-11-29T08:03:22.074Z,9.00
2018-11-29T08:04:25.510Z,9.00
2018-11-29T08:05:28.944Z,9.00
2018-11-29T08:06:32.358Z,9.00
2018-11-29T08:07:36.280Z,9.00
2018-11-29T08:08:39.770Z,9.00
2018-11-29T08:09:43.162Z,9.00
2018-11-29T08:10:46.675Z,9.10
2018-11-29T08:11:50.054Z,9.10
2018-11-29T08:12:53.867Z,9.10
2018-11-29T08:13:57.431Z,9.10
2018-11-29T08:15:00.900Z,9.10
2018-11-29T08:16:04.364Z,9.10
2018-11-29T08:17:07.762Z,9.20
2018-11-29T08:18:11.159Z,9.20
2018-11-29T08:19:14.542Z,9.20
2018-11-29T08:20:19.923Z,9.20
2018-11-29T08:21:23.338Z,9.20
2018-11-29T08:22:26.766Z,9.20
2018-11-29T08:23:30.199Z,9.20
2018-11-29T08:24:33.590Z,9.20
2018-11-29T08:25:37.002Z,9.30
2018-11-29T08:26:40.475Z,9.30
2018-11-29T08:27:43.872Z,9.30
2018-11-29T08:28:47.242Z,9.30
2018-11-29T08:29:50.640Z,9.30
2018-11-29T08:30:55.681Z,9.30
2018-11-29T08:31:59.138Z,9.40
2018-11-29T08:33:02.513Z,9.40
2018-11-29T08:34:08.817Z,9.40
2018-11-29T08:35:14.337Z,9.40
2018-11-29T08:36:19.021Z,9.40
2018-11-29T08:37:22.415Z,9.40
2018-11-29T08:38:25.787Z,9.40
2018-11-29T08:39:29.191Z,9.40
2018-11-29T08:40:32.571Z,9.40
2018-11-29T08:41:36.019Z,9.40
2018-11-29T08:42:39.483Z,9.40
2018-11-29T08:43:42.879Z,9.40
2018-11-29T08:44:46.304Z,9.40
2018-11-29T08:45:49.682Z,9.30
2018-11-29T08:46:53.307Z,9.40
2018-11-29T08:47:56.758Z,9.40
2018-11-29T08:49:00.159Z,9.40
2018-11-29T08:50:03.545Z,9.40
2018-11-29T08:51:07.110Z,9.40
2018-11-29T08:52:10.507Z,9.30
2018-11-29T08:53:13.941Z,9.40
2018-11-29T08:54:17.345Z,9.30
2018-11-29T08:55:20.770Z,9.40
2018-11-29T08:56:24.151Z,9.40
2018-11-29T08:57:27.576Z,9.30
2018-11-29T08:58:30.982Z,9.40
2018-11-29T08:59:34.370Z,9.30
2018-11-29T09:00:37.789Z,9.30
2018-11-29T09:01:41.180Z,9.40
2018-11-29T09:02:44.655Z,9.40
2018-11-29T09:03:48.068Z,9.40
2018-11-29T09:04:51.490Z,9.40
2018-11-29T09:05:54.889Z,9.40
2018-11-29T09:06:58.329Z,9.40
2018-11-29T09:08:01.943Z,9.40
2018-11-29T09:09:07.765Z,9.40
2018-11-29T09:10:14.400Z,9.40
2018-11-29T09:11:17.789Z,9.40
2018-11-29T09:12:21.196Z,9.40
2018-11-29T09:13:24.582Z,9.40
2018-11-29T09:14:27.991Z,9.40
2018-11-29T09:15:31.383Z,9.40
2018-11-29T09:16:34.767Z,9.40
2018-11-29T09:17:38.186Z,9.40
2018-11-29T09:18:41.579Z,9.40
2018-11-29T09:19:44.979Z,9.50
2018-11-29T09:20:48.354Z,9.40
2018-11-29T09:21:51.836Z,9.50
2018-11-29T09:22:55.226Z,9.50
2018-11-29T09:23:58.623Z,9.50
2018-11-29T09:25:02.045Z,9.50
2018-11-29T09:26:06.232Z,9.50
2018-11-29T09:27:09.619Z,9.50
2018-11-29T09:28:12.984Z,9.50
2018-11-29T09:29:16.367Z,9.50
2018-11-29T09:30:21.636Z,9.50
2018-11-29T09:31:25.011Z,9.50
2018-11-29T09:32:28.475Z,9.50
2018-11-29T09:33:31.895Z,9.50
2018-11-29T09:34:35.307Z,9.50
2018-11-29T09:35:38.739Z,9.50
2018-11-29T09:36:42.176Z,9.50
2018-11-29T09:37:45.565Z,9.50
2018-11-29T09:38:48.966Z,9.50
2018-11-29T09:39:52.347Z,9.50
2018-11-29T09:40:55.803Z,9.50
2018-11-29T09:41:59.210Z,9.50
2018-11-29T09:43:02.609Z,9.50
2018-11-29T09:44:05.992Z,9.40
2018-11-29T09:45:15.117Z,9.40
2018-11-29T09:46:18.567Z,9.40
2018-11-29T09:47:22.135Z,9.50
2018-11-29T09:48:25.565Z,9.40
2018-11-29T09:49:29.053Z,9.50
2018-11-29T09:50:32.530Z,9.40
2018-11-29T09:51:35.956Z,9.40
2018-11-29T09:52:40.203Z,9.40
2018-11-29T09:53:43.635Z,9.50
2018-11-29T09:54:47.224Z,9.40
2018-11-29T09:55:50.809Z,9.40
2018-11-29T09:56:54.258Z,9.40
2018-11-29T09:57:57.783Z,9.40
2018-11-29T09:59:01.250Z,9.40
2018-11-29T10:00:09.508Z,9.40
2018-11-29T10:01:12.987Z,9.40
2018-11-29T10:02:16.447Z,9.40
2018-11-29T10:03:19.876Z,9.40
2018-11-29T10:04:23.387Z,9.40
2018-11-29T10:05:26.875Z,9.40
2018-11-29T10:06:30.383Z,9.40
2018-11-29T10:07:33.887Z,9.40
2018-11-29T10:08:37.327Z,9.40
2018-11-29T10:09:40.762Z,9.40
2018-11-29T10:10:44.226Z,9.40
2018-11-29T10:11:47.753Z,9.40
2018-11-29T10:12:51.371Z,9.40
2018-11-29T10:13:54.851Z,9.40
2018-11-29T10:14:58.409Z,9.40
2018-11-29T10:16:01.941Z,9.40
2018-11-29T10:17:05.725Z,9.40
2018-11-29T10:18:10.676Z,9.40
2018-11-29T10:19:14.155Z,9.40
2018-11-29T10:20:17.682Z,9.40
2018-11-29T10:21:21.093Z,9.40
2018-11-29T10:22:24.531Z,9.40
2018-11-29T10:23:28.051Z,9.40
2018-11-29T10:24:31.519Z,9.40
2018-11-29T10:25:36.563Z,9.40
2018-11-29T10:26:39.114Z,9.40
2018-11-29T10:27:46.283Z,9.40
2018-11-29T10:28:49.784Z,9.40
2018-11-29T10:29:53.313Z,9.40
2018-11-29T10:30:58.287Z,9.40
2018-11-29T10:32:01.823Z,9.40
2018-11-29T10:33:05.352Z,9.40
2018-11-29T10:34:08.882Z,9.40
2018-11-29T10:35:12.359Z,9.40
2018-11-29T10:36:15.812Z,9.40
2018-11-29T10:37:19.219Z,9.40
2018-11-29T10:38:22.636Z,9.40
2018-11-29T10:39:26.304Z,9.40
2018-11-29T10:40:29.754Z,9.40
2018-11-29T10:41:33.287Z,9.40
2018-11-29T10:42:36.948Z,9.40
2018-11-29T10:43:40.390Z,9.50
2018-11-29T10:44:43.910Z,9.50
2018-11-29T10:45:47.431Z,9.50
2018-11-29T10:46:50.896Z,9.50
2018-11-29T10:47:55.205Z,9.50
2018-11-29T10:48:58.731Z,9.50
2018-11-29T10:50:02.188Z,9.50
2018-11-29T10:51:06.376Z,9.50
2018-11-29T10:52:09.842Z,9.50
2018-11-29T10:53:13.330Z,9.40
2018-11-29T10:54:16.968Z,9.50
2018-11-29T10:55:20.540Z,9.40
2018-11-29T10:56:23.970Z,9.40
2018-11-29T10:57:27.395Z,9.40
2018-11-29T10:58:30.861Z,9.40
2018-11-29T10:59:34.375Z,9.40
2018-11-29T11:00:43.230Z,9.40
2018-11-29T11:01:50.871Z,9.40
2018-11-29T11:03:29.284Z,9.30
2018-11-29T11:04:32.855Z,9.40
2018-11-29T11:05:37.250Z,9.40
2018-11-29T11:06:40.713Z,9.40
2018-11-29T11:07:44.195Z,9.40
2018-11-29T11:08:47.601Z,9.40
2018-11-29T11:09:51.012Z,9.30
2018-11-29T11:10:54.434Z,9.30
2018-11-29T11:11:58.011Z,9.30
2018-11-29T11:13:01.536Z,9.30
2018-11-29T11:14:05.732Z,9.30
2018-11-29T11:15:09.246Z,9.30
2018-11-29T11:16:12.776Z,9.30
2018-11-29T11:17:16.266Z,9.30
2018-11-29T11:18:20.279Z,9.30
2018-11-29T11:19:23.709Z,9.30
2018-11-29T11:20:27.162Z,9.20
2018-11-29T11:21:30.586Z,9.20
2018-11-29T11:22:34.049Z,9.20
2018-11-29T11:23:37.541Z,9.20
2018-11-29T11:24:40.975Z,9.20
2018-11-29T11:25:44.402Z,9.20
2018-11-29T11:26:47.871Z,9.20
2018-11-29T11:27:51.342Z,9.20
2018-11-29T11:28:54.915Z,9.20
2018-11-29T11:29:58.394Z,9.20
2018-11-29T11:31:01.897Z,9.20
2018-11-29T11:32:05.396Z,9.20
2018-11-29T11:33:08.866Z,9.20
2018-11-29T11:34:12.367Z,9.20
2018-11-29T11:35:15.798Z,9.30
2018-11-29T11:36:19.308Z,9.20
2018-11-29T11:37:22.837Z,9.20
2018-11-29T11:38:26.371Z,9.30
2018-11-29T11:39:29.919Z,9.20
2018-11-29T11:40:33.321Z,9.20
2018-11-29T11:41:36.755Z,9.20
2018-11-29T11:42:40.178Z,9.20
2018-11-29T11:43:43.656Z,9.30
2018-11-29T11:44:47.258Z,9.20
2018-11-29T11:45:50.689Z,9.20
2018-11-29T11:46:54.160Z,9.20
2018-11-29T11:48:03.267Z,9.20
2018-11-29T11:49:01.241Z,9.20
2018-11-29T11:50:10.753Z,9.20
2018-11-29T11:51:10.640Z,9.20
2018-11-29T11:52:14.079Z,9.30
2018-11-29T11:53:17.514Z,9.30
2018-11-29T11:54:21.041Z,9.30
2018-11-29T11:55:30.073Z,9.20
2018-11-29T11:56:27.988Z,9.30
2018-11-29T11:57:31.542Z,9.20
2018-11-29T11:58:35.058Z,9.20
2018-11-29T11:59:38.545Z,9.20
2018-11-29T12:00:42.055Z,9.30
2018-11-29T12:01:45.519Z,9.30
2018-11-29T12:02:51.356Z,9.30
2018-11-29T12:03:54.787Z,9.30
2018-11-29T12:04:58.237Z,9.20
2018-11-29T12:06:01.707Z,9.20
2018-11-29T12:07:05.124Z,9.20
2018-11-29T12:08:08.634Z,9.20
2018-11-29T12:09:12.088Z,9.10
2018-11-29T12:10:16.362Z,9.10
2018-11-29T12:11:19.866Z,9.10
2018-11-29T12:12:23.454Z,9.10
2018-11-29T12:13:26.927Z,9.10
2018-11-29T12:14:30.428Z,9.10
2018-11-29T12:15:33.874Z,9.10
2018-11-29T12:16:37.299Z,9.10
2018-11-29T12:17:41.479Z,9.10
2018-11-29T12:18:45.192Z,9.00
2018-11-29T12:19:48.675Z,9.00
2018-11-29T12:20:52.154Z,9.00
2018-11-29T12:21:55.623Z,9.00
2018-11-29T12:22:59.023Z,9.00
2018-11-29T12:24:02.455Z,9.00
2018-11-29T12:25:07.137Z,9.00
2018-11-29T12:26:10.649Z,9.00
2018-11-29T12:27:14.107Z,9.00
2018-11-29T12:28:17.590Z,9.00
2018-11-29T12:29:21.120Z,9.00
2018-11-29T12:30:30.116Z,9.00
2018-11-29T12:31:33.575Z,9.00
2018-11-29T12:32:37.038Z,9.00
2018-11-29T12:33:40.507Z,9.10
2018-11-29T12:34:43.944Z,9.10
2018-11-29T12:35:47.384Z,9.10
2018-11-29T12:36:50.882Z,9.10
2018-11-29T12:37:54.316Z,9.10
2018-11-29T12:38:58.063Z,9.10
2018-11-29T12:40:01.519Z,9.20
2018-11-29T12:41:05.299Z,9.20
2018-11-29T12:42:08.752Z,9.20
2018-11-29T12:43:12.201Z,9.20
2018-11-29T12:44:15.616Z,9.20
2018-11-29T12:45:19.071Z,9.30
2018-11-29T12:46:22.539Z,9.30
2018-11-29T12:47:26.040Z,9.20
2018-11-29T12:48:29.507Z,9.20
2018-11-29T12:49:32.954Z,9.30
2018-11-29T12:50:38.658Z,9.30
2018-11-29T12:51:42.137Z,9.30
2018-11-29T12:52:45.750Z,9.30
2018-11-29T12:53:49.210Z,9.30
2018-11-29T12:54:52.687Z,9.30
2018-11-29T12:55:56.083Z,9.30
2018-11-29T12:56:59.542Z,9.30
2018-11-29T12:58:06.057Z,9.30
2018-11-29T12:59:07.612Z,9.40
2018-11-29T13:00:16.410Z,9.30
2018-11-29T13:01:20.972Z,9.30
2018-11-29T13:02:27.356Z,9.30
2018-11-29T13:03:32.722Z,9.30
2018-11-29T13:04:39.092Z,9.30
2018-11-29T13:05:43.282Z,9.30
2018-11-29T13:06:49.815Z,9.30
2018-11-29T13:07:55.286Z,9.30
2018-11-29T13:09:10.019Z,9.30
2018-11-29T13:10:16.426Z,9.30
2018-11-29T13:11:21.700Z,9.30
2018-11-29T13:12:26.170Z,9.30
2018-11-29T13:13:32.616Z,9.30
2018-11-29T13:14:37.452Z,9.30
2018-11-29T13:15:45.693Z,9.30
2018-11-29T13:16:50.170Z,9.30
2018-11-29T13:17:58.015Z,9.30
2018-11-29T13:19:03.856Z,9.40
2018-11-29T13:20:10.942Z,9.40
2018-11-29T13:21:15.444Z,9.30
2018-11-29T13:22:20.579Z,9.30
2018-11-29T13:23:25.868Z,9.30
2018-11-29T13:24:30.019Z,9.30
2018-11-29T13:25:36.678Z,9.30
2018-11-29T13:26:43.944Z,9.30
2018-11-29T13:27:53.365Z,9.30
2018-11-29T13:28:58.441Z,9.30
2018-11-29T13:30:03.034Z,9.30
2018-11-29T13:31:09.666Z,9.30
2018-11-29T13:32:13.895Z,9.30
2018-11-29T13:33:18.993Z,9.30
2018-11-29T13:34:23.634Z,9.40
2018-11-29T13:35:34.492Z,9.40
2018-11-29T13:36:42.051Z,9.30
2018-11-29T13:37:53.802Z,9.30
2018-11-29T13:38:58.010Z,9.30
2018-11-29T13:40:04.941Z,9.40
2018-11-29T13:41:10.533Z,9.40
2018-11-29T13:42:17.165Z,9.40
2018-11-29T13:43:23.004Z,9.40
2018-11-29T13:44:29.483Z,9.40
2018-11-29T13:45:41.159Z,9.40
2018-11-29T13:46:49.099Z,9.40
2018-11-29T13:47:55.896Z,9.40
2018-11-29T13:49:02.368Z,9.40
2018-11-29T13:50:18.539Z,9.40
2018-11-29T13:51:24.785Z,9.40
2018-11-29T13:52:33.090Z,9.40
2018-11-29T13:53:39.173Z,9.40
2018-11-29T13:54:47.746Z,9.40
2018-11-29T13:55:56.787Z,9.40
2018-11-29T13:57:04.458Z,9.40
2018-11-29T13:58:11.189Z,9.40
2018-11-29T13:59:15.990Z,9.40
2018-11-29T14:00:24.473Z,9.30
2018-11-29T14:01:30.299Z,9.40
2018-11-29T14:02:35.819Z,9.40
2018-11-29T14:03:43.275Z,9.30
2018-11-29T14:04:49.115Z,9.30
2018-11-29T14:05:58.236Z,9.30
2018-11-29T14:07:08.637Z,9.30
2018-11-29T14:08:16.238Z,9.40
2018-11-29T14:09:21.906Z,9.30
2018-11-29T14:10:31.667Z,9.40